createdAt,value
2019-05-14T00:01:03.727Z,99462.10
2019-05-14T00:03:34.053Z,99459.30
2019-05-14T00:06:04.433Z,99459.03
2019-05-14T00:08:34.690Z,99462.80
2019-05-14T00:11:04.951Z,99458.70
2019-05-14T00:13:35.151Z,99457.92
2019-05-14T00:16:05.358Z,99460.55
2019-05-14T00:18:35.574Z,99460.90
2019-05-14T00:21:05.743Z,99451.63
2019-05-14T00:23:36.019Z,99448.13
2019-05-14T00:26:06.213Z,99446.08
2019-05-14T00:28:36.453Z,99440.32
2019-05-14T00:31:06.640Z,99436.27
2019-05-14T00:33:36.851Z,99436.10
2019-05-14T00:36:07.045Z,99424.90
2019-05-14T00:38:37.298Z,99425.81
2019-05-14T00:41:07.483Z,99427.13
2019-05-14T00:43:37.685Z,99424.66
2019-05-14T00:46:07.956Z,99427.08
2019-05-14T00:48:38.170Z,99426.39
2019-05-14T00:51:08.359Z,99426.78
2019-05-14T00:53:38.593Z,99423.52
2019-05-14T00:56:10.903Z,99432.98
2019-05-14T00:58:41.502Z,99422.91
2019-05-14T01:01:12.357Z,99417.66
2019-05-14T01:03:42.583Z,99417.24
2019-05-14T01:06:12.787Z,99415.22
2019-05-14T01:08:42.999Z,99417.14
2019-05-14T01:11:13.199Z,99419.02
2019-05-14T01:13:43.416Z,99419.43
2019-05-14T01:16:13.603Z,99415.84
2019-05-14T01:18:43.846Z,99416.35
2019-05-14T01:21:14.029Z,99419.93
2019-05-14T01:23:44.239Z,99420.03
2019-05-14T01:26:14.421Z,99422.39
2019-05-14T01:28:44.637Z,99421.07
2019-05-14T01:31:14.978Z,99428.67
2019-05-14T01:33:45.309Z,99428.15
2019-05-14T01:36:15.490Z,99419.73
2019-05-14T01:38:45.754Z,99414.09
2019-05-14T01:41:15.968Z,99423.97
2019-05-14T01:43:46.165Z,99415.37
2019-05-14T01:46:16.420Z,99420.31
2019-05-14T01:48:46.609Z,99420.14
2019-05-14T01:51:16.835Z,99420.30
2019-05-14T01:53:47.026Z,99418.12
2019-05-14T01:56:17.242Z,99412.26
2019-05-14T01:58:47.429Z,99414.70
2019-05-14T02:01:17.643Z,99413.09
2019-05-14T02:03:47.839Z,99406.56
2019-05-14T02:06:18.077Z,99403.25
2019-05-14T02:08:48.322Z,99404.98
2019-05-14T02:11:18.684Z,99399.33
2019-05-14T02:13:48.902Z,99398.88
2019-05-14T02:16:19.093Z,99398.22
2019-05-14T02:18:49.319Z,99395.11
2019-05-14T02:21:19.502Z,99397.50
2019-05-14T02:23:51.425Z,99395.10
2019-05-14T02:26:22.178Z,99397.00
2019-05-14T02:28:52.384Z,99402.05
2019-05-14T02:31:22.571Z,99406.30
2019-05-14T02:33:52.791Z,99401.02
2019-05-14T02:36:22.971Z,99398.98
2019-05-14T02:38:53.190Z,99397.11
2019-05-14T02:41:23.410Z,99393.11
2019-05-14T02:43:53.990Z,99390.97
2019-05-14T02:46:24.299Z,99389.45
2019-05-14T02:48:54.484Z,99393.37
2019-05-14T02:51:24.788Z,99391.14
2019-05-14T02:53:55.018Z,99385.56
2019-05-14T02:56:25.207Z,99382.69
2019-05-14T02:58:55.502Z,99381.30
2019-05-14T03:01:25.690Z,99380.62
2019-05-14T03:03:55.967Z,99379.60
2019-05-14T03:06:28.989Z,99378.31
2019-05-14T03:08:59.963Z,99381.20
2019-05-14T03:11:30.102Z,99382.84
2019-05-14T03:14:00.300Z,99377.70
2019-05-14T03:16:35.402Z,99376.53
2019-05-14T03:19:02.514Z,99371.81
2019-05-14T03:21:32.880Z,99374.27
2019-05-14T03:24:03.213Z,99375.70
2019-05-14T03:26:33.450Z,99372.94
2019-05-14T03:29:03.723Z,99379.19
2019-05-14T03:31:34.253Z,99377.12
2019-05-14T03:34:04.639Z,99376.44
2019-05-14T03:36:35.634Z,99371.97
2019-05-14T03:39:10.515Z,99376.72
2019-05-14T03:41:39.999Z,99367.02
2019-05-14T03:44:10.583Z,99366.05
2019-05-14T03:46:49.774Z,99364.78
2019-05-14T03:49:12.897Z,99365.20
2019-05-14T03:51:43.152Z,99363.20
2019-05-14T03:54:13.450Z,99362.51
2019-05-14T03:56:43.712Z,99366.39
2019-05-14T03:59:14.094Z,99359.66
2019-05-14T04:01:44.449Z,99367.23
2019-05-14T04:04:14.936Z,99366.78
2019-05-14T04:06:49.753Z,99359.70
2019-05-14T04:09:21.431Z,99356.23
2019-05-14T04:11:54.336Z,99350.91
2019-05-14T04:14:29.226Z,99353.91
2019-05-14T04:17:09.774Z,99352.52
2019-05-14T04:19:39.535Z,99351.81
2019-05-14T04:22:13.759Z,99348.13
2019-05-14T04:24:49.392Z,99349.19
2019-05-14T04:27:20.519Z,99350.19
2019-05-14T04:29:54.326Z,99346.63
2019-05-14T04:32:24.632Z,99351.03
2019-05-14T04:34:55.100Z,99355.85
2019-05-14T04:37:25.455Z,99353.91
2019-05-14T04:39:59.090Z,99360.41
2019-05-14T04:42:29.523Z,99354.95
2019-05-14T04:45:05.232Z,99359.28
2019-05-14T04:47:37.242Z,99350.31
2019-05-14T04:50:10.227Z,99351.22
2019-05-14T04:52:40.282Z,99349.59
2019-05-14T04:55:10.421Z,99349.62
2019-05-14T04:57:40.703Z,99348.66
2019-05-14T05:00:12.486Z,99348.76
2019-05-14T05:02:43.086Z,99358.31
2019-05-14T05:05:13.533Z,99364.06
2019-05-14T05:07:44.142Z,99362.06
2019-05-14T05:10:14.406Z,99366.69
2019-05-14T05:12:44.624Z,99365.85
2019-05-14T05:15:14.976Z,99356.97
2019-05-14T05:17:51.717Z,99350.02
2019-05-14T05:20:19.330Z,99348.71
2019-05-14T05:22:49.073Z,99353.69
2019-05-14T05:25:19.302Z,99352.72
2019-05-14T05:27:49.488Z,99346.47
2019-05-14T05:30:21.009Z,99350.82
2019-05-14T05:32:51.201Z,99353.86
2019-05-14T05:35:21.431Z,99356.50
2019-05-14T05:37:51.651Z,99368.53
2019-05-14T05:40:22.138Z,99361.28
2019-05-14T05:42:52.322Z,99359.27
2019-05-14T05:45:22.581Z,99358.02
2019-05-14T05:47:57.458Z,99362.47
2019-05-14T05:50:24.769Z,99360.13
2019-05-14T05:52:54.975Z,99358.31
2019-05-14T05:55:25.165Z,99366.41
2019-05-14T05:57:58.478Z,99360.23
2019-05-14T06:00:40.880Z,99361.65
2019-05-14T06:03:11.434Z,99360.09
2019-05-14T06:05:41.659Z,99356.98
2019-05-14T06:08:12.603Z,99355.72
2019-05-14T06:10:42.817Z,99357.12
2019-05-14T06:13:14.036Z,99354.33
2019-05-14T06:15:48.699Z,99347.31
2019-05-14T06:18:19.434Z,99344.79
2019-05-14T06:20:49.530Z,99349.55
2019-05-14T06:23:19.791Z,99349.80
2019-05-14T06:25:50.039Z,99350.34
2019-05-14T06:28:21.058Z,99347.56
2019-05-14T06:30:51.438Z,99343.66
2019-05-14T06:33:21.622Z,99340.12
2019-05-14T06:35:51.837Z,99339.78
2019-05-14T06:38:22.037Z,99338.15
2019-05-14T06:40:52.270Z,99338.03
2019-05-14T06:43:22.796Z,99343.33
2019-05-14T06:45:53.007Z,99338.47
2019-05-14T06:48:30.308Z,99334.28
2019-05-14T06:50:55.147Z,99334.95
2019-05-14T06:53:25.362Z,99327.92
2019-05-14T06:55:55.665Z,99331.53
2019-05-14T06:58:25.862Z,99327.56
2019-05-14T07:00:58.471Z,99324.36
2019-05-14T07:03:28.270Z,99324.23
2019-05-14T07:05:59.559Z,99326.12
2019-05-14T07:08:29.897Z,99325.22
2019-05-14T07:11:00.151Z,99322.87
2019-05-14T07:13:30.361Z,99324.25
2019-05-14T07:16:00.639Z,99324.39
2019-05-14T07:18:45.738Z,99314.05
2019-05-14T07:21:02.731Z,99319.86
2019-05-14T07:23:32.924Z,99309.38
2019-05-14T07:26:03.150Z,99311.29
2019-05-14T07:28:33.336Z,99308.56
2019-05-14T07:31:03.598Z,99308.09
2019-05-14T07:33:33.795Z,99305.62
2019-05-14T07:36:04.028Z,99308.07
2019-05-14T07:38:34.250Z,99300.25
2019-05-14T07:41:04.566Z,99312.36
2019-05-14T07:43:34.757Z,99301.01
2019-05-14T07:46:05.162Z,99299.29
2019-05-14T07:48:35.351Z,99295.08
2019-05-14T07:51:08.441Z,99295.39
2019-05-14T07:53:41.622Z,99292.34
2019-05-14T07:56:09.700Z,99295.16
2019-05-14T07:58:39.949Z,99285.16
2019-05-14T08:01:10.194Z,99295.19
2019-05-14T08:03:40.421Z,99289.50
2019-05-14T08:06:10.642Z,99288.23
2019-05-14T08:08:41.505Z,99295.70
2019-05-14T08:11:12.876Z,99286.59
2019-05-14T08:13:43.198Z,99283.48
2019-05-14T08:16:13.474Z,99279.73
2019-05-14T08:18:43.724Z,99270.78
2019-05-14T08:21:13.943Z,99273.15
2019-05-14T08:23:44.163Z,99270.16
2019-05-14T08:26:14.451Z,99268.34
2019-05-14T08:28:44.676Z,99256.41
2019-05-14T08:31:14.888Z,99262.81
2019-05-14T08:33:45.143Z,99252.91
2019-05-14T08:36:15.342Z,99256.78
2019-05-14T08:38:46.509Z,99250.62
2019-05-14T08:41:19.758Z,99253.30
2019-05-14T08:43:49.666Z,99255.05
2019-05-14T08:46:20.009Z,99246.69
2019-05-14T08:48:50.229Z,99241.85
2019-05-14T08:51:20.514Z,99239.81
2019-05-14T08:53:50.788Z,99235.14
2019-05-14T08:56:20.960Z,99238.80
2019-05-14T08:58:51.198Z,99230.41
2019-05-14T09:01:21.404Z,99239.84
2019-05-14T09:03:51.626Z,99233.75
2019-05-14T09:06:21.936Z,99237.86
2019-05-14T09:08:52.209Z,99235.78
2019-05-14T09:11:25.106Z,99237.53
2019-05-14T09:13:54.380Z,99237.59
2019-05-14T09:16:38.336Z,99245.53
2019-05-14T09:18:58.150Z,99243.81
2019-05-14T09:21:29.633Z,99235.41
2019-05-14T09:24:00.118Z,99232.14
2019-05-14T09:26:30.439Z,99236.97
2019-05-14T09:29:16.933Z,99214.88
2019-05-14T09:31:32.701Z,99216.28
2019-05-14T09:34:02.900Z,99218.81
2019-05-14T09:36:33.150Z,99209.84
2019-05-14T09:39:05.019Z,99214.28
2019-05-14T09:41:35.383Z,99216.65
2019-05-14T09:44:05.659Z,99208.23
2019-05-14T09:46:38.277Z,99200.06
2019-05-14T09:49:08.114Z,99203.25
2019-05-14T09:51:38.618Z,99209.91
2019-05-14T09:54:08.839Z,99200.53
2019-05-14T09:56:39.652Z,99210.48
2019-05-14T09:59:09.853Z,99207.14
2019-05-14T10:01:40.085Z,99198.98
2019-05-14T10:04:22.129Z,99202.66
2019-05-14T10:06:52.388Z,99198.69
2019-05-14T10:09:22.589Z,99197.45
2019-05-14T10:11:52.805Z,99185.40
2019-05-14T10:14:23.045Z,99179.52
2019-05-14T10:16:53.251Z,99182.52
2019-05-14T10:19:23.481Z,99176.27
2019-05-14T10:21:53.690Z,99164.79
2019-05-14T10:24:23.934Z,99157.34
2019-05-14T10:26:54.145Z,99153.16
2019-05-14T10:29:24.679Z,99165.16
2019-05-14T10:31:55.690Z,99165.86
2019-05-14T10:34:28.729Z,99166.30
2019-05-14T10:36:59.346Z,99168.16
2019-05-14T10:39:30.059Z,99160.06
2019-05-14T10:42:00.419Z,99147.81
2019-05-14T10:44:30.651Z,99144.14
2019-05-14T10:47:00.870Z,99136.59
2019-05-14T10:49:50.417Z,99136.88
2019-05-14T10:52:32.930Z,99127.55
2019-05-14T10:55:03.217Z,99139.52
2019-05-14T10:57:33.447Z,99140.99
2019-05-14T11:00:04.495Z,99137.87
2019-05-14T11:02:35.059Z,99141.92
2019-05-14T11:05:18.709Z,99138.86
2019-05-14T11:07:49.102Z,99131.33
2019-05-14T11:10:19.671Z,99137.02
2019-05-14T11:12:51.505Z,99124.21
2019-05-14T11:15:22.016Z,99123.21
2019-05-14T11:17:52.253Z,99119.81
2019-05-14T11:20:22.873Z,99113.80
2019-05-14T11:22:53.159Z,99100.41
2019-05-14T11:25:23.527Z,99108.78
2019-05-14T11:27:53.759Z,99110.00
2019-05-14T11:30:24.685Z,99099.14
2019-05-14T11:32:54.923Z,99103.58
2019-05-14T11:35:25.139Z,99090.62
2019-05-14T11:37:55.362Z,99094.98
2019-05-14T11:40:25.586Z,99084.34
2019-05-14T11:42:55.749Z,99094.16
2019-05-14T11:45:26.378Z,99084.59
2019-05-14T11:47:58.427Z,99087.48
2019-05-14T11:50:28.934Z,99085.20
2019-05-14T11:52:59.268Z,99079.66
2019-05-14T11:55:29.471Z,99077.09
2019-05-14T11:57:59.700Z,99073.16
2019-05-14T12:00:30.847Z,99066.33
2019-05-14T12:03:01.575Z,99061.27
2019-05-14T12:05:31.791Z,99062.13
2019-05-14T12:08:02.035Z,99057.81
2019-05-14T12:10:32.226Z,99072.98
2019-05-14T12:13:02.536Z,99049.83
2019-05-14T12:15:33.930Z,99050.98
2019-05-14T12:18:10.450Z,99051.20
2019-05-14T12:20:40.432Z,99049.47
2019-05-14T12:23:10.701Z,99068.27
2019-05-14T12:25:40.890Z,99052.84
2019-05-14T12:28:13.647Z,99049.25
2019-05-14T12:30:43.034Z,99055.34
2019-05-14T12:33:13.258Z,99037.97
2019-05-14T12:35:43.468Z,99053.65
2019-05-14T12:38:13.680Z,99048.89
2019-05-14T12:40:44.440Z,99038.66
2019-05-14T12:43:14.673Z,99056.44
2019-05-14T12:45:44.873Z,99047.06
2019-05-14T12:48:15.093Z,99036.55
2019-05-14T12:50:48.645Z,99037.91
2019-05-14T12:53:19.912Z,99024.94
2019-05-14T12:55:49.700Z,99026.42
2019-05-14T12:58:20.490Z,99043.56
2019-05-14T13:00:50.861Z,99040.92
2019-05-14T13:03:21.091Z,99039.38
2019-05-14T13:05:51.448Z,99036.88
2019-05-14T13:08:21.690Z,99032.58
2019-05-14T13:10:51.891Z,99024.73
2019-05-14T13:13:42.848Z,99041.78
2019-05-14T13:16:13.315Z,99024.47
2019-05-14T13:18:43.550Z,99020.52
2019-05-14T13:21:13.781Z,99021.18
2019-05-14T13:23:44.013Z,99018.01
2019-05-14T13:26:14.299Z,99026.64
2019-05-14T13:28:44.512Z,99023.57
2019-05-14T13:31:14.739Z,99019.67
2019-05-14T13:33:44.972Z,99023.99
2019-05-14T13:36:15.209Z,99023.59
2019-05-14T13:38:45.507Z,99020.09
2019-05-14T13:41:15.706Z,99024.57
2019-05-14T13:43:45.933Z,99013.36
2019-05-14T13:46:18.809Z,99015.84
2019-05-14T13:48:49.947Z,99011.31
2019-05-14T13:51:20.021Z,99003.46
2019-05-14T13:53:50.202Z,98995.17
2019-05-14T13:56:20.446Z,98985.59
2019-05-14T13:58:50.692Z,98982.25
2019-05-14T14:01:20.896Z,98968.75
2019-05-14T14:04:04.276Z,98994.43
2019-05-14T14:06:23.046Z,98977.38
2019-05-14T14:08:53.261Z,98981.72
2019-05-14T14:11:23.486Z,98968.77
2019-05-14T14:13:53.684Z,98965.55
2019-05-14T14:16:23.999Z,98963.42
2019-05-14T14:18:54.225Z,98968.98
2019-05-14T14:21:24.454Z,98969.63
2019-05-14T14:23:54.696Z,98971.02
2019-05-14T14:26:25.252Z,98970.58
2019-05-14T14:28:55.485Z,98973.33
2019-05-14T14:31:25.703Z,98977.21
2019-05-14T14:33:55.921Z,98973.67
2019-05-14T14:36:29.575Z,98971.17
2019-05-14T14:38:58.785Z,98970.92
2019-05-14T14:41:29.172Z,98967.60
2019-05-14T14:43:59.384Z,98969.83
2019-05-14T14:46:29.688Z,98962.92
2019-05-14T14:49:02.634Z,98953.03
2019-05-14T14:51:31.940Z,98940.73
2019-05-14T14:54:10.616Z,98932.63
2019-05-14T14:56:34.091Z,98927.35
2019-05-14T14:59:04.765Z,98945.66
2019-05-14T15:01:35.236Z,98940.63
2019-05-14T15:04:05.601Z,98960.48
2019-05-14T15:06:39.444Z,98957.44
2019-05-14T15:09:09.751Z,98926.28
2019-05-14T15:11:40.072Z,98930.45
2019-05-14T15:14:10.384Z,98915.23
2019-05-14T15:16:40.604Z,98912.66
2019-05-14T15:19:10.899Z,98905.20
2019-05-14T15:21:41.144Z,98901.92
2019-05-14T15:24:15.369Z,98895.21
2019-05-14T15:26:43.416Z,98889.45
2019-05-14T15:29:13.805Z,98893.91
2019-05-14T15:31:44.015Z,98884.91
2019-05-14T15:34:14.222Z,98892.40
2019-05-14T15:36:44.452Z,98888.91
2019-05-14T15:39:14.684Z,98886.31
2019-05-14T15:41:44.948Z,98889.55
2019-05-14T15:44:15.202Z,98873.05
2019-05-14T15:46:45.434Z,98881.58
2019-05-14T15:49:15.717Z,98881.24
2019-05-14T15:51:45.921Z,98878.38
2019-05-14T15:54:35.965Z,98882.30
2019-05-14T15:56:49.362Z,98889.55
2019-05-14T15:59:19.787Z,98882.39
2019-05-14T16:01:50.004Z,98879.23
2019-05-14T16:04:20.855Z,98880.66
2019-05-14T16:06:52.316Z,98889.15
2019-05-14T16:09:22.534Z,98887.77
2019-05-14T16:11:52.770Z,98876.46
2019-05-14T16:14:23.061Z,98878.88
2019-05-14T16:16:53.264Z,98882.83
2019-05-14T16:19:23.493Z,98879.54
2019-05-14T16:21:53.731Z,98878.48
2019-05-14T16:24:23.959Z,98892.72
2019-05-14T16:26:54.172Z,98906.09
2019-05-14T16:29:40.291Z,98905.42
2019-05-14T16:31:58.186Z,98911.81
2019-05-14T16:34:28.786Z,98914.09
2019-05-14T16:36:59.032Z,98913.59
2019-05-14T16:39:29.278Z,98919.31
2019-05-14T16:41:59.511Z,98921.12
2019-05-14T16:44:29.766Z,98914.28
2019-05-14T16:46:59.986Z,98937.45
2019-05-14T16:49:33.461Z,98947.77
2019-05-14T16:52:02.192Z,98957.64
2019-05-14T16:54:32.403Z,98962.89
2019-05-14T16:57:02.618Z,98970.83
2019-05-14T16:59:32.830Z,98982.49
2019-05-14T17:02:03.032Z,98960.02
2019-05-14T17:04:33.274Z,98964.91
2019-05-14T17:07:03.501Z,98965.67
2019-05-14T17:09:33.802Z,98962.64
2019-05-14T17:12:04.019Z,98961.70
2019-05-14T17:14:34.265Z,98972.55
2019-05-14T17:17:04.565Z,98971.84
2019-05-14T17:19:34.788Z,98963.30
2019-05-14T17:22:23.332Z,98962.38
2019-05-14T17:24:39.482Z,98968.25
2019-05-14T17:27:08.917Z,98974.88
2019-05-14T17:29:39.203Z,98983.41
2019-05-14T17:32:09.400Z,98977.09
2019-05-14T17:34:39.615Z,98978.30
2019-05-14T17:37:09.861Z,98980.55
2019-05-14T17:39:41.740Z,98981.38
2019-05-14T17:42:12.058Z,98986.50
2019-05-14T17:44:42.370Z,98996.30
2019-05-14T17:47:13.445Z,98984.28
2019-05-14T17:49:44.028Z,98983.93
2019-05-14T17:52:14.283Z,98988.30
2019-05-14T17:54:56.788Z,98988.04
2019-05-14T17:57:34.067Z,98980.70
2019-05-14T17:59:58.955Z,98976.26
2019-05-14T18:02:29.208Z,98971.03
2019-05-14T18:04:59.495Z,98970.63
2019-05-14T18:07:29.747Z,98970.61
2019-05-14T18:10:00.011Z,98972.70
2019-05-14T18:12:30.882Z,98971.54
2019-05-14T18:15:01.308Z,98972.07
2019-05-14T18:17:31.563Z,98968.16
2019-05-14T18:20:01.899Z,98968.47
2019-05-14T18:22:32.127Z,98976.06
2019-05-14T18:25:02.356Z,98970.01
2019-05-14T18:27:32.563Z,98964.58
2019-05-14T18:30:02.776Z,98970.86
2019-05-14T18:32:32.978Z,98966.66
2019-05-14T18:35:03.178Z,98967.52
2019-05-14T18:37:33.401Z,98966.25
2019-05-14T18:40:05.455Z,98971.28
2019-05-14T18:42:35.684Z,98974.38
2019-05-14T18:45:08.604Z,98982.56
2019-05-14T18:47:39.774Z,98978.66
2019-05-14T18:50:11.410Z,98983.47
2019-05-14T18:52:41.640Z,98982.49
2019-05-14T18:55:12.373Z,98981.08
2019-05-14T18:57:42.600Z,98983.43
2019-05-14T19:00:14.104Z,98987.97
2019-05-14T19:02:44.388Z,98989.77
2019-05-14T19:05:15.121Z,98989.33
2019-05-14T19:07:45.332Z,98994.41
2019-05-14T19:10:18.402Z,98991.86
2019-05-14T19:12:49.944Z,98996.53
2019-05-14T19:15:19.801Z,98991.41
2019-05-14T19:17:50.023Z,98991.16
2019-05-14T19:20:20.265Z,98989.81
2019-05-14T19:22:50.446Z,98997.77
2019-05-14T19:25:20.660Z,98992.20
2019-05-14T19:27:50.867Z,98991.77
2019-05-14T19:30:21.211Z,98991.14
2019-05-14T19:32:51.478Z,98995.06
2019-05-14T19:35:21.888Z,98993.45
2019-05-14T19:37:52.093Z,98996.39
2019-05-14T19:40:22.360Z,99001.16
2019-05-14T19:42:52.601Z,98994.51
2019-05-14T19:45:22.975Z,98996.86
2019-05-14T19:47:53.192Z,98997.56
2019-05-14T19:50:23.482Z,99001.90
2019-05-14T19:52:53.786Z,98996.27
2019-05-14T19:55:24.007Z,98997.06
2019-05-14T19:57:54.301Z,98996.45
2019-05-14T20:00:28.845Z,98996.80
2019-05-14T20:02:58.534Z,98995.37
2019-05-14T20:05:28.823Z,98994.02
2019-05-14T20:07:59.046Z,98990.19
2019-05-14T20:10:29.533Z,98986.74
2019-05-14T20:12:59.833Z,98986.97
2019-05-14T20:15:30.038Z,98983.33
2019-05-14T20:18:00.289Z,98992.19
2019-05-14T20:20:30.497Z,98988.32
2019-05-14T20:23:00.696Z,98983.22
2019-05-14T20:25:30.978Z,98981.23
2019-05-14T20:28:01.183Z,98980.17
2019-05-14T20:30:31.465Z,98978.66
2019-05-14T20:33:01.693Z,98976.55
2019-05-14T20:35:34.945Z,98968.94
2019-05-14T20:38:03.809Z,98962.39
2019-05-14T20:40:34.023Z,98966.72
2019-05-14T20:43:04.213Z,98961.15
2019-05-14T20:45:34.494Z,98961.28
2019-05-14T20:48:05.002Z,98960.50
2019-05-14T20:50:38.469Z,98962.91
2019-05-14T20:53:09.150Z,98960.13
2019-05-14T20:55:40.101Z,98962.37
2019-05-14T20:58:10.318Z,98958.51
2019-05-14T21:00:50.259Z,98959.66
2019-05-14T21:03:22.528Z,98961.33
2019-05-14T21:05:52.744Z,98955.33
2019-05-14T21:08:22.953Z,98951.81
2019-05-14T21:10:53.168Z,98951.27
2019-05-14T21:13:23.382Z,98949.59
2019-05-14T21:15:53.610Z,98952.21
2019-05-14T21:18:34.727Z,98956.53
2019-05-14T21:20:56.777Z,98949.42
2019-05-14T21:23:26.982Z,98942.03
2019-05-14T21:25:57.203Z,98941.43
2019-05-14T21:28:29.843Z,98942.84
2019-05-14T21:30:59.326Z,98943.29
2019-05-14T21:33:30.363Z,98940.01
2019-05-14T21:36:00.780Z,98937.31
2019-05-14T21:38:30.979Z,98940.81
2019-05-14T21:41:01.256Z,98930.86
2019-05-14T21:43:31.462Z,98929.55
2019-05-14T21:46:01.659Z,98931.60
2019-05-14T21:48:31.841Z,98931.83
2019-05-14T21:51:02.022Z,98928.53
2019-05-14T21:53:32.285Z,98930.95
2019-05-14T21:56:02.481Z,98928.71
2019-05-14T21:58:32.699Z,98926.58
2019-05-14T22:01:03.589Z,98930.94
2019-05-14T22:03:33.876Z,98923.84
2019-05-14T22:06:04.210Z,98927.72
2019-05-14T22:08:34.419Z,98919.36
2019-05-14T22:11:04.701Z,98918.50
2019-05-14T22:13:34.913Z,98915.74
2019-05-14T22:16:05.107Z,98912.80
2019-05-14T22:18:35.359Z,98913.78
2019-05-14T22:21:05.759Z,98912.22
2019-05-14T22:23:38.525Z,98917.70
2019-05-14T22:26:07.867Z,98913.73
2019-05-14T22:28:38.101Z,98914.60
2019-05-14T22:31:09.141Z,98910.28
2019-05-14T22:33:39.584Z,98908.34
2019-05-14T22:36:09.783Z,98914.86
2019-05-14T22:38:40.057Z,98907.94
2019-05-14T22:41:11.617Z,98910.80
2019-05-14T22:43:41.925Z,98907.78
2019-05-14T22:46:12.132Z,98911.73
2019-05-14T22:48:42.430Z,98921.67
2019-05-14T22:51:13.766Z,98919.71
2019-05-14T22:53:43.952Z,98919.80
2019-05-14T22:56:14.166Z,98918.05
2019-05-14T22:58:44.325Z,98919.53
2019-05-14T23:01:15.317Z,98919.72
2019-05-14T23:03:45.611Z,98923.24
2019-05-14T23:06:15.849Z,98921.02
2019-05-14T23:08:48.467Z,98915.25
2019-05-14T23:11:19.798Z,98915.70
2019-05-14T23:13:49.881Z,98913.92
2019-05-14T23:16:33.458Z,98913.27
2019-05-14T23:18:52.019Z,98910.27
2019-05-14T23:21:22.257Z,98906.03
2019-05-14T23:23:52.449Z,98906.30
2019-05-14T23:26:22.709Z,98904.58
2019-05-14T23:28:52.923Z,98897.72
2019-05-14T23:31:23.287Z,98899.03
2019-05-14T23:33:53.482Z,98899.58
2019-05-14T23:36:23.691Z,98893.69
2019-05-14T23:38:54.960Z,98890.02
2019-05-14T23:41:25.194Z,98886.94
2019-05-14T23:43:55.441Z,98880.59
2019-05-14T23:46:25.645Z,98875.75
2019-05-14T23:48:55.867Z,98872.28
2019-05-14T23:51:26.063Z,98873.70
2019-05-14T23:53:56.302Z,98863.13
2019-05-14T23:56:28.671Z,98860.07
2019-05-14T23:59:01.865Z,98853.89
